createdAt,value
2018-10-11T00:02:03.917Z,34.53
2018-10-11T00:04:32.483Z,34.57
2018-10-11T00:07:01.048Z,33.87
2018-10-11T00:09:29.606Z,33.20
2018-10-11T00:11:58.206Z,34.80
2018-10-11T00:14:26.764Z,34.50
2018-10-11T00:16:55.331Z,32.23
2018-10-11T00:19:23.884Z,35.60
2018-10-11T00:21:52.460Z,35.43
2018-10-11T00:24:21.024Z,34.67
2018-10-11T00:26:49.584Z,33.13
2018-10-11T00:29:18.147Z,34.27
2018-10-11T00:31:46.719Z,35.40
2018-10-11T00:34:15.331Z,35.00
2018-10-11T00:36:43.883Z,36.70
2018-10-11T00:39:12.463Z,35.13
2018-10-11T00:41:41.044Z,34.37
2018-10-11T00:44:09.693Z,35.50
2018-10-11T00:46:38.263Z,35.50
2018-10-11T00:49:06.817Z,34.60
2018-10-11T00:51:35.404Z,34.00
2018-10-11T00:54:03.947Z,34.70
2018-10-11T00:56:32.495Z,33.60
2018-10-11T00:59:01.135Z,32.60
2018-10-11T01:01:29.711Z,37.30
2018-10-11T01:03:58.263Z,35.10
2018-10-11T01:06:26.843Z,36.23
2018-10-11T01:08:55.416Z,32.57
2018-10-11T01:11:24.033Z,34.63
2018-10-11T01:13:52.645Z,36.00
2018-10-11T01:16:21.236Z,35.70
2018-10-11T01:18:49.837Z,33.40
2018-10-11T01:21:18.420Z,36.90
2018-10-11T01:23:47.093Z,37.27
2018-10-11T01:26:15.597Z,35.03
2018-10-11T01:28:44.203Z,36.57
2018-10-11T01:31:18.379Z,36.27
2018-10-11T01:33:46.980Z,35.20
2018-10-11T01:36:15.576Z,36.60
2018-10-11T01:38:44.268Z,35.87
2018-10-11T01:41:13.115Z,35.00
2018-10-11T01:43:41.711Z,36.00
2018-10-11T01:46:10.327Z,36.67
2018-10-11T01:48:39.040Z,33.07
2018-10-11T01:51:07.640Z,34.27
2018-10-11T01:53:36.250Z,36.90
2018-10-11T01:56:04.835Z,35.50
2018-10-11T01:58:33.447Z,35.63
2018-10-11T02:01:02.058Z,35.40
2018-10-11T02:03:30.652Z,33.80
2018-10-11T02:05:59.285Z,36.80
2018-10-11T02:08:27.975Z,35.30
2018-10-11T02:10:56.631Z,36.23
2018-10-11T02:13:25.219Z,35.87
2018-10-11T02:15:53.804Z,36.30
2018-10-11T02:18:22.404Z,39.30
2018-10-11T02:20:50.994Z,36.90
2018-10-11T02:23:19.579Z,36.37
2018-10-11T02:25:48.172Z,36.27
2018-10-11T02:28:16.777Z,37.77
2018-10-11T02:30:45.363Z,40.10
2018-10-11T02:33:13.948Z,35.47
2018-10-11T02:35:42.555Z,36.20
2018-10-11T02:38:11.134Z,37.03
2018-10-11T02:40:39.728Z,37.50
2018-10-11T02:43:08.316Z,37.37
2018-10-11T02:45:36.911Z,37.67
2018-10-11T02:48:06.003Z,39.37
2018-10-11T02:50:34.592Z,36.90
2018-10-11T02:53:03.171Z,36.47
2018-10-11T02:55:31.759Z,36.80
2018-10-11T02:58:11.728Z,36.40
2018-10-11T03:00:40.323Z,35.57
2018-10-11T03:03:12.108Z,39.30
2018-10-11T03:05:42.060Z,38.00
2018-10-11T03:08:13.324Z,37.77
2018-10-11T03:10:42.071Z,38.10
2018-10-11T03:13:12.508Z,35.87
2018-10-11T03:15:41.727Z,37.03
2018-10-11T03:18:10.935Z,40.87
2018-10-11T03:20:40.563Z,35.90
2018-10-11T03:23:09.768Z,37.00
2018-10-11T03:25:38.340Z,36.27
2018-10-11T03:28:07.769Z,38.03
2018-10-11T03:30:36.337Z,36.30
2018-10-11T03:33:04.895Z,39.27
2018-10-11T03:35:33.470Z,37.03
2018-10-11T03:38:02.032Z,37.67
2018-10-11T03:40:30.597Z,39.50
2018-10-11T03:42:59.163Z,35.60
2018-10-11T03:45:27.735Z,38.67
2018-10-11T03:47:56.455Z,37.67
2018-10-11T03:50:25.587Z,38.80
2018-10-11T03:52:54.164Z,41.77
2018-10-11T03:55:22.732Z,40.63
2018-10-11T03:57:51.283Z,41.20
2018-10-11T04:00:19.926Z,41.47
2018-10-11T04:02:48.483Z,39.67
2018-10-11T04:05:17.043Z,40.67
2018-10-11T04:07:45.615Z,40.13
2018-10-11T04:10:14.204Z,42.13
2018-10-11T04:12:42.809Z,41.60
2018-10-11T04:15:11.403Z,40.30
2018-10-11T04:17:39.996Z,41.80
2018-10-11T04:20:08.608Z,39.20
2018-10-11T04:22:37.219Z,41.47
2018-10-11T04:25:05.803Z,40.87
2018-10-11T04:27:34.414Z,40.27
2018-10-11T04:30:03.040Z,41.57
2018-10-11T04:32:31.618Z,41.83
2018-10-11T04:35:00.420Z,41.50
2018-10-11T04:37:29.007Z,39.40
2018-10-11T04:39:57.591Z,41.47
2018-10-11T04:42:26.187Z,39.80
2018-10-11T04:44:54.771Z,41.27
2018-10-11T04:47:23.383Z,40.23
2018-10-11T04:49:51.980Z,40.20
2018-10-11T04:52:20.583Z,42.40
2018-10-11T04:54:49.168Z,37.77
2018-10-11T04:57:17.762Z,41.17
2018-10-11T04:59:46.418Z,40.43
2018-10-11T05:02:14.947Z,39.90
2018-10-11T05:04:43.555Z,41.30
2018-10-11T05:07:12.400Z,42.23
2018-10-11T05:09:41.020Z,40.60
2018-10-11T05:12:16.408Z,41.70
2018-10-11T05:14:45.007Z,39.87
2018-10-11T05:17:13.668Z,41.37
2018-10-11T05:19:42.212Z,39.90
2018-10-11T05:22:10.835Z,42.60
2018-10-11T05:24:39.499Z,39.30
2018-10-11T05:27:08.081Z,45.73
2018-10-11T05:29:36.689Z,40.70
2018-10-11T05:32:05.323Z,48.30
2018-10-11T05:34:33.884Z,44.57
2018-10-11T05:37:02.473Z,43.87
2018-10-11T05:39:31.088Z,49.00
2018-10-11T05:41:59.708Z,45.37
2018-10-11T05:44:28.584Z,42.57
2018-10-11T05:46:57.115Z,41.80
2018-10-11T05:49:25.704Z,41.10
2018-10-11T05:51:54.283Z,42.50
2018-10-11T05:54:22.900Z,40.77
2018-10-11T05:56:51.563Z,42.03
2018-10-11T05:59:20.071Z,42.97
2018-10-11T06:01:48.789Z,41.87
2018-10-11T06:04:17.427Z,42.13
2018-10-11T06:06:46.950Z,43.47
2018-10-11T06:09:15.590Z,41.30
2018-10-11T06:11:44.353Z,44.57
2018-10-11T06:14:13.536Z,39.57
2018-10-11T06:16:42.126Z,48.30
2018-10-11T06:19:12.652Z,40.70
2018-10-11T06:21:41.243Z,42.57
2018-10-11T06:24:09.852Z,40.27
2018-10-11T06:26:38.441Z,37.63
2018-10-11T06:29:07.143Z,40.30
2018-10-11T06:31:36.019Z,43.30
2018-10-11T06:34:04.604Z,39.57
2018-10-11T06:36:33.895Z,36.47
2018-10-11T06:39:02.788Z,35.00
2018-10-11T06:41:31.382Z,40.13
2018-10-11T06:43:59.981Z,40.90
2018-10-11T06:46:28.589Z,48.03
2018-10-11T06:48:57.263Z,42.30
2018-10-11T06:51:25.911Z,41.00
2018-10-11T06:53:54.508Z,40.57
2018-10-11T06:56:23.112Z,40.97
2018-10-11T06:58:51.695Z,46.23
2018-10-11T07:01:20.307Z,45.27
2018-10-11T07:03:48.911Z,40.87
2018-10-11T07:06:17.500Z,40.07
2018-10-11T07:08:46.097Z,41.07
2018-10-11T07:11:15.037Z,41.57
2018-10-11T07:13:43.970Z,39.10
2018-10-11T07:16:12.555Z,39.37
2018-10-11T07:18:41.351Z,41.27
2018-10-11T07:21:10.136Z,39.57
2018-10-11T07:23:38.711Z,38.47
2018-10-11T07:26:07.267Z,38.10
2018-10-11T07:28:35.892Z,36.70
2018-10-11T07:31:04.456Z,38.57
2018-10-11T07:33:33.016Z,37.10
2018-10-11T07:36:01.594Z,38.87
2018-10-11T07:38:30.153Z,34.30
2018-10-11T07:40:58.744Z,36.60
2018-10-11T07:43:27.279Z,40.93
2018-10-11T07:45:55.847Z,37.80
2018-10-11T07:48:24.411Z,36.33
2018-10-11T07:50:53.003Z,35.00
2018-10-11T07:53:21.583Z,36.00
2018-10-11T07:55:50.139Z,34.60
2018-10-11T07:58:25.499Z,34.33
2018-10-11T08:00:54.066Z,35.63
2018-10-11T08:03:22.649Z,33.67
2018-10-11T08:05:51.200Z,34.50
2018-10-11T08:08:19.791Z,40.60
2018-10-11T08:10:48.370Z,34.33
2018-10-11T08:13:16.908Z,34.90
2018-10-11T08:15:45.475Z,32.80
2018-10-11T08:18:14.063Z,33.93
2018-10-11T08:20:42.632Z,31.33
2018-10-11T08:23:11.195Z,33.63
2018-10-11T08:25:40.009Z,33.03
2018-10-11T08:28:08.395Z,32.27
2018-10-11T08:30:37.020Z,31.80
2018-10-11T08:33:05.772Z,30.30
2018-10-11T08:35:34.272Z,31.93
2018-10-11T08:38:03.103Z,31.50
2018-10-11T08:40:31.435Z,31.23
2018-10-11T08:43:00.000Z,28.50
2018-10-11T08:45:28.574Z,29.13
2018-10-11T08:47:57.136Z,30.13
2018-10-11T08:50:25.771Z,29.90
2018-10-11T08:52:54.266Z,27.80
2018-10-11T08:55:22.873Z,28.33
2018-10-11T08:57:51.399Z,27.80
2018-10-11T09:00:20.038Z,26.67
2018-10-11T09:02:48.589Z,28.13
2018-10-11T09:05:17.177Z,28.20
2018-10-11T09:07:45.731Z,30.13
2018-10-11T09:10:14.334Z,28.17
2018-10-11T09:12:43.028Z,30.03
2018-10-11T09:15:11.630Z,30.37
2018-10-11T09:17:40.219Z,29.33
2018-10-11T09:20:08.818Z,26.30
2018-10-11T09:22:37.432Z,29.03
2018-10-11T09:25:06.028Z,27.43
2018-10-11T09:27:34.645Z,27.73
2018-10-11T09:30:03.259Z,30.77
2018-10-11T09:32:31.859Z,28.73
2018-10-11T09:35:00.553Z,27.17
2018-10-11T09:37:29.147Z,25.30
2018-10-11T09:39:57.743Z,26.47
2018-10-11T09:42:26.378Z,25.13
2018-10-11T09:44:54.960Z,23.83
2018-10-11T09:47:23.555Z,22.17
2018-10-11T09:49:52.154Z,22.67
2018-10-11T09:52:20.771Z,21.10
2018-10-11T09:54:49.433Z,21.80
2018-10-11T09:57:21.084Z,19.70
2018-10-11T09:59:49.688Z,20.10
2018-10-11T10:02:18.287Z,21.17
2018-10-11T10:04:48.948Z,20.33
2018-10-11T10:07:17.528Z,17.03
2018-10-11T10:09:46.745Z,15.73
2018-10-11T10:12:15.793Z,14.80
2018-10-11T10:14:45.151Z,14.57
2018-10-11T10:17:13.743Z,14.60
2018-10-11T10:19:42.866Z,16.40
2018-10-11T10:22:11.489Z,13.77
2018-10-11T10:24:40.084Z,13.70
2018-10-11T10:27:08.815Z,12.50
2018-10-11T10:29:38.420Z,13.90
2018-10-11T10:32:07.388Z,12.90
2018-10-11T10:34:36.032Z,12.50
2018-10-11T10:37:04.706Z,13.27
2018-10-11T10:39:33.299Z,12.87
2018-10-11T10:42:01.891Z,12.23
2018-10-11T10:44:30.492Z,12.00
2018-10-11T10:46:59.108Z,11.50
2018-10-11T10:49:27.747Z,11.85
2018-10-11T10:51:56.359Z,11.25
2018-10-11T10:54:29.903Z,12.80
2018-10-11T10:56:59.063Z,11.85
2018-10-11T10:59:27.746Z,11.20
2018-10-11T11:04:55.500Z,12.05
2018-10-11T11:07:24.135Z,11.73
2018-10-11T11:09:52.666Z,10.13
2018-10-11T11:12:21.302Z,10.85
2018-10-11T11:14:49.919Z,9.08
2018-10-11T11:17:18.544Z,9.70
2018-10-11T11:19:47.152Z,11.35
2018-10-11T11:22:15.777Z,14.70
2018-10-11T11:24:44.367Z,10.80
2018-10-11T11:27:12.992Z,10.50
2018-10-11T11:29:41.600Z,10.78
2018-10-11T11:32:10.204Z,9.10
2018-10-11T11:34:38.804Z,8.20
2018-10-11T11:37:07.415Z,7.58
2018-10-11T11:39:36.008Z,11.05
2018-10-11T11:42:04.600Z,6.35
2018-10-11T11:44:33.211Z,6.80
2018-10-11T11:47:01.827Z,4.87
2018-10-11T11:49:30.431Z,5.28
2018-10-11T11:51:59.049Z,5.53
2018-10-11T11:54:27.653Z,5.80
2018-10-11T11:56:56.263Z,12.88
2018-10-11T11:59:35.884Z,5.25
2018-10-11T12:02:04.604Z,5.05
2018-10-11T12:04:33.196Z,5.47
2018-10-11T12:07:01.809Z,5.25
2018-10-11T12:09:30.406Z,5.58
2018-10-11T12:11:58.994Z,7.75
2018-10-11T12:14:27.583Z,5.62
2018-10-11T12:16:56.203Z,5.00
2018-10-11T12:19:24.810Z,6.87
2018-10-11T12:21:53.418Z,5.25
2018-10-11T12:24:22.020Z,5.30
2018-10-11T12:26:50.916Z,5.83
2018-10-11T12:29:19.548Z,6.10
2018-10-11T12:31:48.142Z,5.00
2018-10-11T12:34:16.746Z,5.08
2018-10-11T12:36:45.345Z,4.37
2018-10-11T12:39:13.935Z,5.17
2018-10-11T12:41:42.540Z,4.25
2018-10-11T12:44:11.166Z,5.12
2018-10-11T12:46:40.929Z,5.33
2018-10-11T12:49:08.410Z,6.17
2018-10-11T12:51:37.060Z,5.42
2018-10-11T12:54:05.607Z,5.50
2018-10-11T12:56:34.277Z,6.10
2018-10-11T12:59:02.823Z,7.45
2018-10-11T13:01:31.418Z,6.35
2018-10-11T13:04:00.028Z,5.78
2018-10-11T13:06:28.717Z,5.70
2018-10-11T13:08:57.322Z,5.42
2018-10-11T13:11:25.939Z,5.83
2018-10-11T13:13:54.556Z,5.20
2018-10-11T13:16:23.167Z,5.85
2018-10-11T13:18:51.777Z,5.83
2018-10-11T13:21:20.395Z,5.87
2018-10-11T13:23:48.995Z,5.47
2018-10-11T13:26:17.594Z,5.47
2018-10-11T13:28:46.209Z,6.22
2018-10-11T13:31:14.793Z,6.20
2018-10-11T13:33:43.403Z,5.62
2018-10-11T13:36:12.008Z,5.37
2018-10-11T13:38:41.492Z,6.70
2018-10-11T13:41:10.464Z,5.60
2018-10-11T13:43:39.043Z,5.50
2018-10-11T13:46:07.923Z,5.85
2018-10-11T13:48:36.500Z,5.45
2018-10-11T13:51:05.104Z,5.20
2018-10-11T13:53:33.708Z,4.80
2018-10-11T13:56:02.321Z,4.72
2018-10-11T13:58:30.923Z,6.10
2018-10-11T14:00:59.532Z,5.37
2018-10-11T14:03:28.145Z,5.40
2018-10-11T14:05:56.762Z,5.47
2018-10-11T14:08:25.367Z,6.20
2018-10-11T14:10:53.996Z,5.67
2018-10-11T14:13:22.597Z,5.58
2018-10-11T14:15:51.187Z,4.67
2018-10-11T14:18:19.801Z,5.37
2018-10-11T14:20:48.391Z,5.00
2018-10-11T14:23:16.997Z,6.17
2018-10-11T14:25:45.599Z,5.72
2018-10-11T14:28:14.195Z,4.92
2018-10-11T14:30:42.800Z,4.30
2018-10-11T14:33:11.419Z,5.25
2018-10-11T14:35:40.019Z,5.58
2018-10-11T14:38:08.750Z,5.53
2018-10-11T14:40:37.328Z,5.67
2018-10-11T14:43:06.128Z,5.53
2018-10-11T14:45:34.751Z,5.72
2018-10-11T14:48:03.420Z,8.58
2018-10-11T14:50:32.020Z,6.17
2018-10-11T14:53:00.636Z,6.78
2018-10-11T14:55:29.235Z,5.97
2018-10-11T14:57:57.882Z,6.28
2018-10-11T15:00:26.468Z,6.08
2018-10-11T15:02:55.147Z,5.67
2018-10-11T15:05:23.749Z,6.22
2018-10-11T15:07:52.286Z,8.65
2018-10-11T15:10:20.964Z,6.63
2018-10-11T15:12:49.521Z,6.43
2018-10-11T15:15:18.119Z,6.40
2018-10-11T15:17:46.834Z,6.30
2018-10-11T15:20:15.399Z,6.40
2018-10-11T15:22:43.997Z,6.83
2018-10-11T15:25:12.603Z,6.87
2018-10-11T15:27:41.219Z,9.47
2018-10-11T15:30:09.869Z,6.37
2018-10-11T15:32:38.478Z,6.40
2018-10-11T15:35:07.165Z,7.43
2018-10-11T15:37:35.743Z,6.50
2018-10-11T15:40:04.552Z,6.20
2018-10-11T15:42:33.180Z,6.50
2018-10-11T15:45:02.243Z,6.37
2018-10-11T15:47:30.875Z,6.90
2018-10-11T15:49:59.476Z,6.03
2018-10-11T15:52:28.165Z,7.30
2018-10-11T15:54:56.755Z,7.60
2018-10-11T15:57:25.407Z,8.10
2018-10-11T15:59:54.656Z,6.60
2018-10-11T16:02:23.385Z,7.90
2018-10-11T16:04:51.996Z,7.77
2018-10-11T16:07:20.614Z,11.70
2018-10-11T16:09:49.228Z,8.40
2018-10-11T16:12:17.842Z,8.30
2018-10-11T16:14:46.488Z,7.70
2018-10-11T16:17:15.082Z,5.87
2018-10-11T16:19:43.792Z,7.43
2018-10-11T16:22:12.398Z,7.93
2018-10-11T16:24:41.109Z,8.57
2018-10-11T16:27:09.676Z,7.77
2018-10-11T16:29:38.386Z,8.50
2018-10-11T16:32:07.008Z,9.63
2018-10-11T16:34:35.636Z,10.13
2018-10-11T16:37:04.287Z,9.37
2018-10-11T16:39:33.127Z,9.23
2018-10-11T16:42:01.757Z,9.70
2018-10-11T16:44:30.396Z,10.83
2018-10-11T16:46:59.040Z,11.43
2018-10-11T16:49:27.725Z,10.03
2018-10-11T16:51:56.299Z,8.90
2018-10-11T16:54:33.669Z,9.93
2018-10-11T16:57:02.395Z,8.97
2018-10-11T16:59:31.040Z,8.60
2018-10-11T17:01:59.720Z,9.40
2018-10-11T17:04:28.362Z,11.70
2018-10-11T17:06:56.920Z,9.43
2018-10-11T17:09:25.520Z,10.37
2018-10-11T17:11:54.143Z,9.30
2018-10-11T17:14:22.778Z,9.50
2018-10-11T17:16:51.769Z,9.20
2018-10-11T17:19:20.476Z,9.67
2018-10-11T17:21:49.096Z,9.07
2018-10-11T17:24:17.678Z,12.40
2018-10-11T17:26:46.284Z,9.00
2018-10-11T17:29:14.927Z,9.43
2018-10-11T17:31:43.721Z,10.00
2018-10-11T17:34:12.509Z,11.57
2018-10-11T17:36:41.313Z,10.37
2018-10-11T17:39:11.107Z,11.07
2018-10-11T17:41:40.332Z,13.90
2018-10-11T17:44:09.716Z,12.17
2018-10-11T17:46:38.381Z,11.97
2018-10-11T17:49:07.084Z,16.50
2018-10-11T17:51:35.707Z,13.47
2018-10-11T17:54:04.365Z,12.23
2018-10-11T17:56:33.333Z,14.70
2018-10-11T17:59:01.896Z,19.77
2018-10-11T18:01:30.572Z,18.37
2018-10-11T18:03:59.227Z,16.80
2018-10-11T18:06:27.863Z,17.53
2018-10-11T18:08:56.504Z,19.03
2018-10-11T18:11:25.340Z,14.67
2018-10-11T18:13:54.027Z,14.47
2018-10-11T18:16:22.639Z,12.50
2018-10-11T18:18:51.331Z,11.33
2018-10-11T18:21:19.991Z,12.20
2018-10-11T18:23:48.780Z,11.80
2018-10-11T18:26:17.393Z,12.30
2018-10-11T18:28:46.072Z,17.43
2018-10-11T18:31:14.747Z,12.87
2018-10-11T18:33:43.361Z,13.50
2018-10-11T18:36:12.163Z,17.33
2018-10-11T18:38:40.824Z,16.57
2018-10-11T18:41:09.535Z,12.77
2018-10-11T18:43:38.127Z,13.67
2018-10-11T18:46:06.902Z,13.93
2018-10-11T18:48:35.488Z,13.60
2018-10-11T18:51:04.176Z,13.40
2018-10-11T18:53:32.785Z,13.23
2018-10-11T18:56:01.409Z,13.93
2018-10-11T18:58:30.033Z,16.47
2018-10-11T19:00:58.659Z,13.43
2018-10-11T19:03:28.174Z,13.93
2018-10-11T19:05:56.793Z,16.03
2018-10-11T19:08:25.432Z,17.57
2018-10-11T19:10:54.387Z,14.80
2018-10-11T19:13:23.139Z,16.07
2018-10-11T19:15:51.785Z,14.90
2018-10-11T19:18:20.401Z,13.83
2018-10-11T19:20:49.080Z,15.43
2018-10-11T19:23:17.742Z,15.60
2018-10-11T19:25:46.640Z,15.00
2018-10-11T19:28:15.386Z,16.33
2018-10-11T19:30:44.009Z,17.70
2018-10-11T19:33:12.616Z,17.37
2018-10-11T19:35:41.260Z,17.17
2018-10-11T19:38:09.936Z,18.10
2018-10-11T19:40:38.616Z,17.77
2018-10-11T19:43:07.313Z,15.17
2018-10-11T19:45:35.955Z,16.60
2018-10-11T19:48:05.064Z,16.53
2018-10-11T19:50:33.943Z,18.37
2018-10-11T19:53:02.596Z,16.40
2018-10-11T19:55:31.227Z,17.37
2018-10-11T19:57:59.903Z,16.20
2018-10-11T20:00:28.561Z,19.13
2018-10-11T20:02:57.198Z,19.00
2018-10-11T20:05:25.847Z,19.50
2018-10-11T20:07:54.497Z,19.37
2018-10-11T20:10:23.117Z,18.87
2018-10-11T20:12:51.726Z,18.23
2018-10-11T20:15:20.356Z,19.23
2018-10-11T20:17:48.996Z,17.80
2018-10-11T20:20:17.641Z,17.43
2018-10-11T20:22:46.295Z,17.73
2018-10-11T20:25:14.904Z,17.07
2018-10-11T20:27:43.819Z,18.30
2018-10-11T20:30:12.431Z,17.87
2018-10-11T20:32:41.108Z,17.43
2018-10-11T20:35:09.736Z,16.80
2018-10-11T20:37:38.482Z,16.60
2018-10-11T20:40:07.092Z,16.20
2018-10-11T20:42:35.707Z,17.30
2018-10-11T20:45:04.540Z,20.07
2018-10-11T20:47:33.177Z,18.57
2018-10-11T20:50:01.828Z,18.10
2018-10-11T20:52:30.471Z,18.87
2018-10-11T20:54:59.091Z,18.20
2018-10-11T20:57:27.824Z,19.70
2018-10-11T20:59:56.372Z,17.90
2018-10-11T21:02:24.992Z,17.67
2018-10-11T21:04:53.713Z,19.07
2018-10-11T21:07:22.319Z,18.67
2018-10-11T21:09:52.128Z,18.47
2018-10-11T21:12:20.736Z,18.20
2018-10-11T21:14:49.893Z,16.90
2018-10-11T21:17:18.689Z,18.53
2018-10-11T21:19:47.517Z,19.80
2018-10-11T21:22:16.099Z,19.73
2018-10-11T21:24:44.809Z,20.00
2018-10-11T21:27:13.584Z,20.40
2018-10-11T21:29:42.383Z,20.23
2018-10-11T21:32:11.024Z,18.80
2018-10-11T21:37:14.820Z,19.13
2018-10-11T21:39:43.518Z,17.73
2018-10-11T21:42:19.521Z,19.70
2018-10-11T21:44:48.496Z,19.97
2018-10-11T21:47:17.375Z,19.20
2018-10-11T21:49:46.059Z,19.60
2018-10-11T21:52:14.856Z,19.63
2018-10-11T21:54:43.583Z,20.17
2018-10-11T21:57:12.248Z,18.40
2018-10-11T21:59:40.897Z,19.90
2018-10-11T22:02:09.855Z,19.57
2018-10-11T22:04:39.205Z,19.57
2018-10-11T22:07:08.087Z,19.27
2018-10-11T22:09:36.799Z,20.10
2018-10-11T22:12:05.500Z,21.90
2018-10-11T22:14:34.243Z,20.23
2018-10-11T22:17:04.960Z,20.20
2018-10-11T22:19:37.217Z,20.43
2018-10-11T22:22:06.199Z,20.30
2018-10-11T22:24:36.885Z,21.27
2018-10-11T22:27:05.739Z,19.83
2018-10-11T22:29:34.396Z,19.03
2018-10-11T22:32:03.146Z,21.03
2018-10-11T22:34:31.780Z,21.00
2018-10-11T22:37:02.173Z,20.93
2018-10-11T22:39:32.984Z,21.00
2018-10-11T22:42:01.580Z,21.10
2018-10-11T22:44:30.648Z,20.97
2018-10-11T22:47:00.041Z,22.53
2018-10-11T22:49:28.787Z,21.83
2018-10-11T22:51:57.392Z,20.67
2018-10-11T22:54:26.016Z,21.80
2018-10-11T22:56:54.795Z,21.80
2018-10-11T22:59:23.415Z,21.70
2018-10-11T23:01:52.087Z,22.27
2018-10-11T23:04:20.687Z,21.80
2018-10-11T23:06:49.395Z,21.57
2018-10-11T23:09:17.997Z,21.23
2018-10-11T23:11:46.757Z,21.80
2018-10-11T23:14:16.502Z,23.50
2018-10-11T23:16:45.339Z,23.00
2018-10-11T23:19:13.992Z,22.27
2018-10-11T23:21:42.711Z,21.10
2018-10-11T23:24:11.327Z,21.90
2018-10-11T23:26:40.015Z,21.83
2018-10-11T23:29:16.228Z,23.90
2018-10-11T23:31:45.044Z,21.50
2018-10-11T23:34:18.333Z,21.30
2018-10-11T23:36:47.094Z,23.07
2018-10-11T23:39:15.712Z,21.63
2018-10-11T23:41:44.358Z,22.87
2018-10-11T23:44:12.972Z,23.33
2018-10-11T23:46:41.632Z,22.73
2018-10-11T23:49:12.196Z,22.97
2018-10-11T23:51:42.716Z,22.23
2018-10-11T23:54:11.616Z,22.30
2018-10-11T23:56:40.223Z,22.13
2018-10-11T23:59:09.049Z,22.83
